Time;durP1;ratioP1;P1;durP2;ratioP2;P2;SDS_P1;SDS_P2;PMS_P1;PMS_P2;Temp;Humidity;BMP_temperature;BMP_pressure;BME280_temperature;BME280_humidity;BME280_pressure;Samples;Min_cycle;Max_cycle;Signal;HPM_P1;HPM_P2
2022/11/27 00:01:50;;;;;;;5.63;2.85;;;6.70;99.90;;;;;;5036802;28;20404;-71
2022/11/27 00:04:16;;;;;;;8.25;3.33;;;6.60;99.90;;;;;;5036421;28;20389;-71
2022/11/27 00:06:41;;;;;;;11.40;3.38;;;6.70;99.90;;;;;;5054627;28;20045;-71
2022/11/27 00:09:11;;;;;;;9.35;3.55;;;6.60;99.90;;;;;;5054156;28;20131;-71
2022/11/27 00:11:39;;;;;;;8.25;3.55;;;6.90;99.90;;;;;;5054194;28;20052;-71
2022/11/27 00:14:05;;;;;;;8.75;3.92;;;6.50;99.90;;;;;;5054612;28;20095;-71
2022/11/27 00:16:31;;;;;;;6.60;3.33;;;6.50;99.90;;;;;;5036310;28;20045;-71
2022/11/27 00:18:57;;;;;;;8.07;3.35;;;6.50;99.90;;;;;;5053810;28;20056;-71
2022/11/27 00:21:26;;;;;;;8.48;3.33;;;6.70;99.90;;;;;;5054025;28;20078;-71
2022/11/27 00:23:53;;;;;;;6.80;3.47;;;6.40;99.90;;;;;;5053833;28;20088;-70
2022/11/27 00:26:20;;;;;;;8.52;3.63;;;6.40;99.90;;;;;;5053977;28;20049;-70
2022/11/27 00:28:46;;;;;;;8.38;3.67;;;6.80;99.90;;;;;;5054425;28;20068;-70
2022/11/27 00:31:16;;;;;;;8.07;3.30;;;6.40;99.90;;;;;;5053755;28;20102;-70
2022/11/27 00:33:42;;;;;;;8.50;3.53;;;6.30;99.90;;;;;;5053582;28;20072;-70
2022/11/27 00:36:09;;;;;;;7.30;3.60;;;6.40;99.90;;;;;;5035834;28;20064;-70
2022/11/27 00:38:35;;;;;;;9.73;4.72;;;6.30;99.90;;;;;;5053502;28;20060;-70
2022/11/27 00:41:13;;;;;;;8.18;3.65;;;6.40;99.90;;;;;;5053614;28;20493;-70
2022/11/27 00:43:39;;;;;;;8.05;4.00;;;6.30;99.90;;;;;;5053537;28;20048;-70
2022/11/27 00:46:05;;;;;;;8.63;3.83;;;6.20;99.90;;;;;;5053210;28;20056;-70
2022/11/27 00:48:31;;;;;;;7.82;3.67;;;6.20;99.90;;;;;;5053616;28;20060;-70
2022/11/27 00:51:06;;;;;;;7.72;3.72;;;6.20;99.90;;;;;;5053490;28;20067;-70
2022/11/27 00:53:32;;;;;;;5.72;3.17;;;6.10;99.90;;;;;;5036218;28;20051;-70
2022/11/27 00:55:59;;;;;;;8.77;3.47;;;6.20;99.90;;;;;;5053493;28;20439;-70
2022/11/27 00:58:25;;;;;;;9.05;3.83;;;6.10;99.90;;;;;;5035823;28;20048;-71
2022/11/27 01:00:59;;;;;;;6.35;3.38;;;6.10;99.90;;;;;;5053179;28;20052;-70
2022/11/27 01:03:26;;;;;;;7.05;3.00;;;6.10;99.90;;;;;;5053582;28;20045;-70
2022/11/27 01:05:53;;;;;;;7.55;3.30;;;6.40;99.90;;;;;;5053353;28;20410;-70
2022/11/27 01:08:18;;;;;;;7.05;3.55;;;6.00;99.90;;;;;;5035564;28;20074;-70
2022/11/27 01:10:51;;;;;;;11.93;4.28;;;6.00;99.90;;;;;;5052923;28;20045;-70
2022/11/27 01:13:17;;;;;;;7.03;3.22;;;6.00;99.90;;;;;;5053217;28;20048;-70
2022/11/27 01:15:43;;;;;;;9.18;3.95;;;6.00;99.90;;;;;;5053894;28;20041;-70
2022/11/27 01:18:09;;;;;;;7.53;3.47;;;6.00;99.90;;;;;;5053140;28;20049;-71
2022/11/27 01:20:39;;;;;;;6.63;3.38;;;5.90;99.90;;;;;;5053659;28;20128;-70
2022/11/27 01:23:05;;;;;;;8.48;4.28;;;5.90;99.90;;;;;;5053589;28;20048;-70
2022/11/27 01:25:32;;;;;;;6.70;4.07;;;5.90;99.90;;;;;;5053054;28;20045;-70
2022/11/27 01:27:58;;;;;;;10.23;3.50;;;5.80;99.90;;;;;;5035460;28;20111;-70
2022/11/27 01:30:24;;;;;;;6.65;3.30;;;5.80;99.90;;;;;;5036114;28;20413;-70
2022/11/27 01:32:50;;;;;;;6.43;3.60;;;5.80;99.90;;;;;;5052976;28;20052;-69
2022/11/27 01:35:15;;;;;;;7.05;3.38;;;5.80;99.90;;;;;;5053000;28;20060;-70
2022/11/27 01:37:41;;;;;;;8.82;3.80;;;5.70;99.90;;;;;;5053108;28;20053;-70
2022/11/27 01:40:07;;;;;;;8.68;4.05;;;5.70;99.90;;;;;;5052903;28;20466;-70
2022/11/27 01:42:33;;;;;;;5.82;3.83;;;5.70;99.90;;;;;;5053135;28;20049;-70
2022/11/27 01:44:59;;;;;;;7.05;3.42;;;5.60;99.90;;;;;;5053605;28;20353;-70
2022/11/27 01:47:36;;;;;;;6.70;3.00;;;5.60;99.90;;;;;;5053374;28;20439;-70
2022/11/27 01:50:14;;;;;;;8.43;3.17;;;5.60;99.90;;;;;;5052816;28;20075;-70
2022/11/27 01:52:45;;;;;;;5.97;3.15;;;5.60;99.90;;;;;;5052809;28;20037;-70
2022/11/27 01:55:19;;;;;;;7.18;3.28;;;5.80;99.90;;;;;;5053543;28;20041;-70
2022/11/27 01:57:51;;;;;;;7.68;3.53;;;5.60;99.90;;;;;;5055048;28;20091;-71
2022/11/27 02:00:18;;;;;;;8.18;3.50;;;5.60;99.90;;;;;;5056669;28;20049;-71
2022/11/27 02:02:44;;;;;;;8.05;3.60;;;5.60;99.90;;;;;;5056647;28;20084;-70
2022/11/27 02:05:18;;;;;;;7.95;3.90;;;5.60;99.90;;;;;;5056528;28;20088;-70
2022/11/27 02:07:45;;;;;;;7.38;3.28;;;5.60;99.90;;;;;;5038996;28;20044;-70
2022/11/27 02:10:12;;;;;;;7.82;3.30;;;5.90;99.90;;;;;;5056553;28;20045;-70
2022/11/27 02:13:01;;;;;;;9.13;3.70;;;5.50;99.90;;;;;;5056480;28;20045;-69
2022/11/27 02:15:36;;;;;;;5.90;3.75;;;5.60;99.90;;;;;;5056364;28;20053;-70
2022/11/27 02:18:04;;;;;;;6.07;3.00;;;5.50;99.90;;;;;;5056481;28;20074;-69
2022/11/27 02:21:04;;;;;;;7.65;3.47;;;5.40;99.90;;;;;;5057172;28;20446;-70
2022/11/27 02:24:06;;;;;;;9.27;3.75;;;5.40;99.90;;;;;;5056953;28;20081;-70
2022/11/27 02:26:48;;;;;;;6.97;3.35;;;5.30;99.90;;;;;;5056324;28;20049;-70
2022/11/27 02:29:19;;;;;;;6.05;3.25;;;5.40;99.90;;;;;;5056917;28;20048;-70
2022/11/27 02:32:07;;;;;;;5.00;3.33;;;5.40;99.90;;;;;;5039247;28;20094;-70
2022/11/27 02:34:47;;;;;;;4.50;3.08;;;5.40;99.90;;;;;;5055973;28;20057;-69
2022/11/27 02:37:38;;;;;;;7.57;3.25;;;5.40;99.90;;;;;;5022276;28;20061;-70
2022/11/27 02:40:25;;;;;;;6.47;2.95;;;5.40;99.90;;;;;;5056889;28;20049;-70
2022/11/27 02:43:01;;;;;;;9.18;3.25;;;5.40;99.90;;;;;;5055964;28;20041;-70
2022/11/27 02:45:40;;;;;;;6.90;3.72;;;5.40;99.90;;;;;;5038657;28;20080;-71
2022/11/27 02:48:08;;;;;;;5.65;3.00;;;5.40;99.90;;;;;;5055929;28;20041;-70
2022/11/27 02:50:36;;;;;;;6.65;3.15;;;5.40;99.90;;;;;;5055776;28;20049;-70
2022/11/27 02:53:07;;;;;;;6.20;2.97;;;5.40;99.90;;;;;;5055763;28;20045;-70
2022/11/27 02:55:35;;;;;;;6.50;3.40;;;5.40;99.90;;;;;;5038457;28;20045;-70
2022/11/27 02:58:04;;;;;;;10.65;3.03;;;5.40;99.90;;;;;;5056316;28;20049;-70
2022/11/27 03:00:31;;;;;;;4.40;2.78;;;5.40;99.90;;;;;;5055981;28;20051;-71
2022/11/27 03:03:03;;;;;;;6.70;3.15;;;5.30;99.90;;;;;;5056207;28;20052;-71
2022/11/27 03:05:35;;;;;;;7.47;3.35;;;5.30;99.90;;;;;;5038175;28;20048;-71
2022/11/27 03:08:36;;;;;;;10.73;3.80;;;5.30;99.90;;;;;;5055519;28;20413;-71
2022/11/27 03:11:04;;;;;;;5.50;2.90;;;5.30;99.90;;;;;;5055518;28;20057;-71
2022/11/27 03:13:34;;;;;;;7.60;3.22;;;5.30;99.90;;;;;;5056097;28;20102;-70
2022/11/27 03:16:19;;;;;;;5.03;3.05;;;5.30;99.90;;;;;;5037927;28;20052;-71
2022/11/27 03:19:05;;;;;;;7.05;3.17;;;5.30;99.90;;;;;;5055776;28;20131;-71
2022/11/27 03:21:31;;;;;;;;;;;5.20;99.90;;;;;;5055415;28;20481;-71
2022/11/27 03:23:57;;;;;;;4.50;2.80;;;5.20;99.90;;;;;;5055088;28;19924;-71
2022/11/27 03:26:24;;;;;;;7.95;2.80;;;5.20;99.90;;;;;;5055408;28;20045;-71
2022/11/27 03:28:51;;;;;;;7.18;2.65;;;5.20;99.90;;;;;;5037398;28;20056;-71
2022/11/27 03:31:17;;;;;;;7.55;2.97;;;5.20;99.90;;;;;;5054985;28;20044;-71
2022/11/27 03:33:43;;;;;;;6.20;2.95;;;5.20;99.90;;;;;;5055697;28;20123;-70
2022/11/27 03:36:15;;;;;;;4.38;2.83;;;5.60;99.90;;;;;;5004433;28;20505;-70
2022/11/27 03:38:42;;;;;;;6.28;2.80;;;5.20;99.90;;;;;;5055644;28;20099;-70
2022/11/27 03:41:25;;;;;;;4.78;2.50;;;5.60;99.90;;;;;;5054777;28;20051;-70
2022/11/27 03:44:23;;;;;;;6.53;2.95;;;5.20;99.90;;;;;;5020855;28;20044;-70
2022/11/27 03:47:20;;;;;;;3.70;2.25;;;5.20;99.90;;;;;;5055488;28;20052;-70
2022/11/27 03:50:04;;;;;;;8.20;3.40;;;5.20;99.90;;;;;;5054717;28;20060;-70
2022/11/27 03:52:29;;;;;;;5.47;2.92;;;5.20;99.90;;;;;;5054566;28;20489;-70
2022/11/27 03:55:21;;;;;;;7.47;2.70;;;5.20;99.90;;;;;;5054618;28;20049;-71
2022/11/27 03:58:10;;;;;;;7.13;2.90;;;5.20;99.90;;;;;;5054494;28;20055;-71
2022/11/27 04:00:39;;;;;;;7.85;3.53;;;6.00;99.90;;;;;;5053757;28;20064;-71
2022/11/27 04:03:11;;;;;;;4.20;2.40;;;5.20;99.90;;;;;;5054340;28;20084;-70
2022/11/27 04:05:37;;;;;;;8.07;2.60;;;5.20;99.90;;;;;;5054356;28;20053;-70
2022/11/27 04:08:03;;;;;;;8.20;3.03;;;5.20;99.90;;;;;;5054228;28;20152;-70
2022/11/27 04:10:29;;;;;;;6.75;3.25;;;5.20;99.90;;;;;;5054795;28;20128;-71
2022/11/27 04:12:54;;;;;;;5.70;2.70;;;5.20;99.90;;;;;;5054222;28;20041;-70
2022/11/27 04:15:20;;;;;;;8.68;2.92;;;5.20;99.90;;;;;;5054084;28;20052;-70
2022/11/27 04:17:46;;;;;;;5.78;2.53;;;5.20;99.90;;;;;;5037290;28;20083;-70
2022/11/27 04:20:15;;;;;;;7.15;2.47;;;5.40;99.90;;;;;;5053914;28;20136;-70
2022/11/27 04:22:41;;;;;;;4.57;2.67;;;5.20;99.90;;;;;;5053975;28;20067;-70
2022/11/27 04:25:07;;;;;;;5.88;2.63;;;5.20;99.90;;;;;;5053787;28;20049;-70
2022/11/27 04:27:33;;;;;;;6.38;2.72;;;5.20;99.90;;;;;;5053771;28;20084;-70
2022/11/27 04:29:58;;;;;;;7.10;2.70;;;5.10;99.90;;;;;;5053673;28;20045;-70
2022/11/27 04:32:24;;;;;;;6.03;2.20;;;5.40;99.90;;;;;;5053879;28;20052;-71
2022/11/27 04:34:50;;;;;;;5.70;2.65;;;5.20;99.90;;;;;;5054179;28;20056;-71
2022/11/27 04:37:15;;;;;;;6.50;2.80;;;5.10;99.90;;;;;;5054278;28;20474;-71
2022/11/27 04:39:41;;;;;;;5.35;2.83;;;5.70;99.90;;;;;;5036404;28;20049;-71
2022/11/27 04:42:07;;;;;;;5.28;2.60;;;5.10;99.90;;;;;;5053361;28;20427;-70
2022/11/27 04:44:32;;;;;;;5.45;2.30;;;5.20;99.90;;;;;;5053545;28;20053;-71
2022/11/27 04:46:58;;;;;;;7.20;2.33;;;5.10;99.90;;;;;;5053860;28;20045;-71
2022/11/27 04:49:24;;;;;;;5.28;2.70;;;5.70;99.90;;;;;;5036729;28;20351;-71
2022/11/27 04:51:50;;;;;;;4.60;2.40;;;5.10;99.90;;;;;;5036760;28;20040;-70
2022/11/27 04:54:15;;;;;;;5.10;2.33;;;5.10;99.90;;;;;;5035924;28;20128;-71
2022/11/27 04:56:41;;;;;;;6.10;2.65;;;5.50;99.90;;;;;;5053361;28;20052;-70
2022/11/27 04:59:06;;;;;;;6.22;3.05;;;5.10;99.90;;;;;;5053422;28;20048;-70
2022/11/27 05:01:32;;;;;;;4.88;2.38;;;5.10;99.90;;;;;;5053198;28;20477;-71
2022/11/27 05:03:58;;;;;;;5.65;2.50;;;5.10;99.90;;;;;;5053222;28;20451;-71
2022/11/27 05:06:24;;;;;;;6.55;2.30;;;5.10;99.90;;;;;;5053224;28;20047;-71
2022/11/27 05:08:49;;;;;;;4.50;2.47;;;5.10;99.90;;;;;;5035437;28;20131;-71
2022/11/27 05:11:16;;;;;;;5.65;2.58;;;5.10;99.90;;;;;;5053228;28;20087;-71
2022/11/27 05:13:43;;;;;;;4.28;2.22;;;5.10;99.90;;;;;;5053657;28;20045;-70
2022/11/27 05:16:09;;;;;;;4.32;2.30;;;5.20;99.90;;;;;;5036420;28;20413;-70
2022/11/27 05:18:35;;;;;;;3.95;2.10;;;5.10;99.90;;;;;;5053225;28;20080;-70
2022/11/27 05:21:06;;;;;;;6.03;2.47;;;5.30;99.90;;;;;;5053399;28;20079;-70
2022/11/27 05:23:32;;;;;;;7.50;2.40;;;5.10;99.90;;;;;;5052646;28;20481;-71
2022/11/27 05:25:58;;;;;;;5.78;2.75;;;5.10;99.90;;;;;;5053558;28;20484;-70
2022/11/27 05:28:25;;;;;;;7.43;3.92;;;5.10;99.90;;;;;;5052693;28;20056;-70
2022/11/27 05:30:50;;;;;;;5.93;2.80;;;5.10;99.90;;;;;;5052725;28;20490;-70
2022/11/27 05:33:17;;;;;;;5.00;2.38;;;5.10;99.90;;;;;;5041901;28;20045;-70
2022/11/27 05:35:44;;;;;;;5.68;2.85;;;5.40;99.90;;;;;;5059632;28;20109;-70
2022/11/27 05:38:11;;;;;;;5.85;2.60;;;5.00;99.90;;;;;;5059344;28;20486;-70
2022/11/27 05:40:37;;;;;;;5.30;2.70;;;5.20;99.90;;;;;;5042277;28;20041;-70
2022/11/27 05:43:03;;;;;;;7.45;2.55;;;5.10;99.90;;;;;;5041869;28;20048;-70
2022/11/27 05:45:29;;;;;;;4.05;2.20;;;5.00;99.90;;;;;;5060121;28;20515;-70
2022/11/27 05:47:55;;;;;;;5.28;2.33;;;5.00;99.90;;;;;;5059498;28;20081;-70
2022/11/27 05:50:20;;;;;;;5.63;2.58;;;5.20;99.90;;;;;;5059498;28;20145;-70
2022/11/27 05:52:46;;;;;;;5.68;2.55;;;5.00;99.90;;;;;;5060005;28;20123;-70
2022/11/27 05:55:12;;;;;;;4.68;2.30;;;5.50;99.90;;;;;;5041752;28;20068;-71
2022/11/27 05:57:38;;;;;;;4.95;2.88;;;5.00;99.90;;;;;;5059466;28;20041;-70
2022/11/27 06:00:05;;;;;;;6.82;3.25;;;5.00;99.90;;;;;;5059380;28;20111;-70
2022/11/27 06:02:31;;;;;;;5.72;2.92;;;5.00;99.90;;;;;;5059391;28;20144;-70
2022/11/27 06:04:57;;;;;;;5.28;2.22;;;5.00;99.90;;;;;;5059269;28;20040;-70
2022/11/27 06:07:22;;;;;;;5.60;2.13;;;5.00;99.90;;;;;;5059799;28;20447;-70
2022/11/27 06:09:48;;;;;;;6.32;2.78;;;5.30;99.90;;;;;;5041791;28;20367;-71
2022/11/27 06:12:14;;;;;;;6.03;2.40;;;4.90;99.90;;;;;;5041517;28;20472;-70
2022/11/27 06:14:40;;;;;;;5.97;2.47;;;5.00;99.90;;;;;;5060191;28;20486;-70
2022/11/27 06:17:05;;;;;;;8.00;2.97;;;4.90;99.90;;;;;;5059300;28;20041;-70
2022/11/27 06:19:31;;;;;;;4.45;2.40;;;5.00;99.90;;;;;;5059587;28;20076;-70
2022/11/27 06:21:57;;;;;;;5.18;2.38;;;5.00;99.90;;;;;;5059367;28;20500;-70
2022/11/27 06:24:22;;;;;;;5.00;2.55;;;4.90;99.90;;;;;;5059190;28;20045;-70
2022/11/27 06:26:48;;;;;;;4.60;2.58;;;5.00;99.90;;;;;;5059204;28;20049;-70
2022/11/27 06:29:14;;;;;;;6.75;2.72;;;5.60;99.90;;;;;;5059286;28;20041;-70
2022/11/27 06:31:39;;;;;;;5.68;2.58;;;5.00;99.90;;;;;;5059127;28;20093;-70
2022/11/27 06:34:06;;;;;;;4.82;2.50;;;5.50;99.90;;;;;;5059153;28;20041;-70
2022/11/27 06:36:38;;;;;;;3.63;2.35;;;5.00;99.90;;;;;;5059675;28;20060;-70
2022/11/27 06:39:06;;;;;;;4.82;2.30;;;5.00;99.90;;;;;;5059239;28;20052;-70
2022/11/27 06:41:32;;;;;;;3.67;2.25;;;5.00;99.90;;;;;;5059075;28;20461;-70
2022/11/27 06:43:59;;;;;;;5.68;2.70;;;5.20;99.90;;;;;;5056898;28;20092;-70
2022/11/27 06:46:25;;;;;;;4.88;2.45;;;5.00;99.90;;;;;;5055906;28;20099;-70
2022/11/27 06:48:52;;;;;;;5.95;2.58;;;4.90;99.90;;;;;;5056108;28;20122;-70
2022/11/27 06:51:24;;;;;;;4.72;2.47;;;4.90;99.90;;;;;;5055813;28;20037;-70
2022/11/27 06:53:50;;;;;;;5.13;2.90;;;5.00;99.90;;;;;;5055707;28;20466;-70
2022/11/27 06:56:18;;;;;;;5.03;2.50;;;4.90;99.90;;;;;;5038505;28;20049;-70
2022/11/27 06:58:45;;;;;;;5.53;3.00;;;5.90;99.90;;;;;;5055708;28;20048;-70
2022/11/27 07:01:15;;;;;;;6.97;2.75;;;5.00;99.90;;;;;;5038784;28;20041;-70
2022/11/27 07:03:42;;;;;;;4.65;2.92;;;5.00;99.90;;;;;;5055014;28;20043;-70
2022/11/27 07:06:10;;;;;;;4.00;2.40;;;5.00;99.90;;;;;;5037701;28;20075;-70
2022/11/27 07:08:36;;;;;;;4.30;2.42;;;4.90;99.90;;;;;;5055338;28;20053;-70
2022/11/27 07:11:04;;;;;;;5.07;2.28;;;6.10;99.90;;;;;;5055512;28;20052;-71
2022/11/27 07:13:30;;;;;;;5.53;2.55;;;5.00;99.90;;;;;;5055190;28;20055;-70
2022/11/27 07:16:03;;;;;;;4.43;2.70;;;5.00;99.90;;;;;;5055386;28;20064;-70
2022/11/27 07:18:29;;;;;;;5.82;2.83;;;5.00;99.90;;;;;;5055145;28;20049;-70
2022/11/27 07:20:55;;;;;;;6.93;2.92;;;4.90;99.90;;;;;;5055200;28;20049;-70
2022/11/27 07:23:21;;;;;;;6.15;2.60;;;5.80;99.90;;;;;;5054864;28;20504;-70
2022/11/27 07:25:47;;;;;;;5.70;2.83;;;4.90;99.90;;;;;;5054788;28;20045;-70
2022/11/27 07:28:12;;;;;;;4.25;2.42;;;4.90;99.90;;;;;;5055317;28;20383;-70
2022/11/27 07:30:38;;;;;;;4.32;2.35;;;4.90;99.90;;;;;;5054772;28;20085;-70
2022/11/27 07:33:03;;;;;;;4.38;2.60;;;4.90;99.90;;;;;;5037706;28;20462;-70
2022/11/27 07:35:29;;;;;;;9.48;3.80;;;5.00;99.90;;;;;;5054474;28;20091;-70
2022/11/27 07:37:55;;;;;;;4.13;2.72;;;5.40;99.90;;;;;;5054628;28;20053;-70
2022/11/27 07:40:20;;;;;;;4.05;2.42;;;5.30;99.90;;;;;;5054877;28;20041;-70
2022/11/27 07:42:46;;;;;;;5.80;2.88;;;5.10;99.90;;;;;;5054858;28;20167;-70
2022/11/27 07:45:12;;;;;;;3.88;2.60;;;5.00;99.90;;;;;;5054816;28;20053;-70
2022/11/27 07:47:38;;;;;;;6.28;3.42;;;5.30;99.90;;;;;;5054858;28;20056;-70
2022/11/27 07:50:07;;;;;;;8.30;2.55;;;5.20;99.90;;;;;;5054697;28;20049;-70
2022/11/27 07:52:34;;;;;;;6.25;3.22;;;5.00;99.90;;;;;;5054664;28;20053;-71
2022/11/27 07:55:00;;;;;;;5.43;2.40;;;5.20;99.90;;;;;;5054814;28;20048;-70
2022/11/27 07:57:26;;;;;;;3.60;2.47;;;5.00;99.90;;;;;;5054507;28;20397;-72
2022/11/27 07:59:52;;;;;;;6.15;3.10;;;5.00;99.90;;;;;;5054564;28;20473;-65
2022/11/27 08:02:18;;;;;;;6.07;2.58;;;5.00;99.90;;;;;;5054325;28;20047;-64
2022/11/27 08:04:43;;;;;;;4.85;2.47;;;5.00;99.90;;;;;;5055102;28;20442;-64
2022/11/27 08:07:09;;;;;;;4.88;2.90;;;5.10;99.90;;;;;;5054391;28;20478;-64
2022/11/27 08:09:36;;;;;;;4.80;2.60;;;5.20;99.90;;;;;;5054524;28;20393;-64
2022/11/27 08:12:03;;;;;;;4.93;2.58;;;5.00;99.90;;;;;;5054528;28;20045;-64
2022/11/27 08:14:29;;;;;;;5.82;2.75;;;5.10;99.90;;;;;;5054665;28;20082;-64
2022/11/27 08:16:55;;;;;;;6.97;3.30;;;5.10;99.90;;;;;;5053685;28;20048;-64
2022/11/27 08:19:21;;;;;;;4.55;2.80;;;5.10;99.90;;;;;;5036312;28;20048;-64
2022/11/27 08:21:46;;;;;;;5.93;2.97;;;5.20;99.90;;;;;;5054055;28;20123;-64
2022/11/27 08:24:12;;;;;;;4.47;2.58;;;5.10;99.90;;;;;;5054202;28;20450;-64
2022/11/27 08:26:38;;;;;;;6.90;2.92;;;6.10;99.90;;;;;;5053930;28;20048;-64
2022/11/27 08:29:05;;;;;;;5.57;3.03;;;5.20;99.90;;;;;;5053471;28;20493;-64
2022/11/27 08:31:32;;;;;;;5.70;3.08;;;5.20;99.90;;;;;;5036476;28;20045;-64
2022/11/27 08:33:57;;;;;;;4.05;2.63;;;5.40;99.90;;;;;;5053785;28;20045;-64
2022/11/27 08:36:25;;;;;;;4.55;2.67;;;5.20;99.90;;;;;;5053388;28;20567;-64
2022/11/27 08:38:51;;;;;;;5.53;3.15;;;5.30;99.90;;;;;;5035996;28;20102;-64
2022/11/27 08:41:17;;;;;;;6.13;2.85;;;5.40;99.90;;;;;;5053345;28;20135;-64
2022/11/27 08:43:42;;;;;;;5.07;3.05;;;5.30;99.90;;;;;;5053478;28;20045;-64
2022/11/27 08:46:09;;;;;;;6.45;3.15;;;5.30;99.90;;;;;;5053517;28;20041;-64
2022/11/27 08:48:35;;;;;;;4.55;2.55;;;5.30;99.90;;;;;;5053812;28;20087;-64
2022/11/27 08:51:05;;;;;;;7.85;3.70;;;5.40;99.90;;;;;;5053251;28;20048;-65
2022/11/27 08:53:31;;;;;;;5.40;2.95;;;5.40;99.90;;;;;;5053753;28;20056;-64
2022/11/27 08:56:07;;;;;;;6.03;2.95;;;5.40;99.90;;;;;;5053297;28;20175;-64
2022/11/27 08:58:33;;;;;;;4.88;2.90;;;5.40;99.90;;;;;;5020048;28;20056;-65
2022/11/27 09:00:58;;;;;;;7.20;3.08;;;5.70;99.90;;;;;;5052989;28;20056;-64
2022/11/27 09:03:24;;;;;;;5.88;2.80;;;5.50;99.90;;;;;;5053005;28;20074;-65
2022/11/27 09:05:50;;;;;;;5.30;2.67;;;5.50;99.90;;;;;;5035241;28;20103;-65
2022/11/27 09:08:19;;;;;;;5.53;2.67;;;5.50;99.90;;;;;;5035059;28;20049;-65
2022/11/27 09:10:45;;;;;;;5.90;3.17;;;5.50;99.90;;;;;;5053067;28;20501;-65
2022/11/27 09:13:10;;;;;;;5.53;3.13;;;5.50;99.90;;;;;;5053738;28;20051;-65
2022/11/27 09:15:36;;;;;;;5.30;2.53;;;5.50;99.90;;;;;;5052945;28;20045;-64
2022/11/27 09:18:02;;;;;;;6.25;2.92;;;5.60;99.90;;;;;;5052994;28;20052;-72
2022/11/27 09:20:27;;;;;;;4.60;2.70;;;5.60;99.90;;;;;;5035390;28;20557;-72
2022/11/27 09:22:53;;;;;;;4.45;2.85;;;5.60;99.90;;;;;;5052856;28;20137;-72
2022/11/27 09:25:19;;;;;;;5.78;2.97;;;5.60;99.90;;;;;;5035010;28;20048;-71
2022/11/27 09:27:44;;;;;;;5.90;2.90;;;5.60;99.90;;;;;;5053253;28;20053;-71
2022/11/27 09:30:11;;;;;;;4.50;2.72;;;5.60;99.90;;;;;;5052921;28;20498;-71
2022/11/27 09:32:36;;;;;;;4.97;2.58;;;5.60;99.90;;;;;;5052829;28;20144;-72
2022/11/27 09:35:02;;;;;;;6.15;3.10;;;5.70;99.90;;;;;;5052581;28;20056;-72
2022/11/27 09:37:28;;;;;;;4.53;3.15;;;5.60;99.90;;;;;;5053380;28;20053;-72
2022/11/27 09:39:54;;;;;;;5.13;2.90;;;5.80;99.90;;;;;;5035080;28;20454;-72
2022/11/27 09:42:39;;;;;;;4.57;2.97;;;5.70;99.90;;;;;;5052693;28;20053;-72
2022/11/27 09:45:12;;;;;;;7.53;4.03;;;5.60;99.90;;;;;;5035255;28;20083;-72
2022/11/27 09:48:01;;;;;;;4.47;2.90;;;5.60;99.90;;;;;;5052511;28;20486;-73
2022/11/27 09:50:38;;;;;;;5.63;3.22;;;5.50;99.90;;;;;;5052272;28;20059;-72
2022/11/27 09:53:15;;;;;;;5.68;3.10;;;5.50;99.90;;;;;;5052717;28;20057;-71
2022/11/27 09:55:45;;;;;;;5.45;3.38;;;5.50;99.90;;;;;;5052731;28;20045;-71
2022/11/27 09:58:17;;;;;;;6.20;3.00;;;5.50;99.90;;;;;;5035027;28;20049;-72
2022/11/27 10:00:44;;;;;;;6.28;3.00;;;5.50;99.90;;;;;;5052603;28;20056;-72
2022/11/27 10:03:15;;;;;;;6.50;3.13;;;5.50;99.90;;;;;;5052519;28;20053;-71
2022/11/27 10:06:04;;;;;;;5.20;3.30;;;5.50;99.90;;;;;;5052626;28;20045;-73
2022/11/27 10:08:35;;;;;;;8.30;3.75;;;5.50;99.90;;;;;;4996900;28;20087;-73
2022/11/27 10:11:52;;;;;;;4.55;2.78;;;5.60;99.90;;;;;;5035196;28;20132;-73
2022/11/27 10:14:45;;;;;;;5.20;2.78;;;5.40;99.90;;;;;;5001935;28;20057;-75
2022/11/27 10:17:22;;;;;;;4.60;2.95;;;5.40;99.90;;;;;;5034970;28;20569;-73
2022/11/27 10:20:33;;;;;;;6.90;3.20;;;5.40;99.90;;;;;;5038843;28;20136;-73
2022/11/27 10:23:13;;;;;;;5.82;3.33;;;5.40;99.90;;;;;;5056521;28;20045;-73
2022/11/27 10:25:52;;;;;;;6.93;3.40;;;5.40;99.90;;;;;;5038476;28;20060;-74
2022/11/27 10:28:26;;;;;;;5.65;3.63;;;5.60;99.90;;;;;;5056152;28;20560;-73
2022/11/27 10:30:58;;;;;;;6.32;3.50;;;5.40;99.90;;;;;;5039268;28;20049;-73
2022/11/27 10:33:31;;;;;;;5.50;2.90;;;5.90;99.90;;;;;;5056047;28;20055;-73
2022/11/27 10:35:59;;;;;;;4.45;2.90;;;5.40;99.90;;;;;;5038030;28;20065;-72
2022/11/27 10:38:31;;;;;;;5.40;3.15;;;5.90;99.90;;;;;;5038318;28;20055;-72
2022/11/27 10:41:09;;;;;;;5.53;3.92;;;5.40;99.90;;;;;;5056714;28;20053;-73
2022/11/27 10:43:35;;;;;;;5.75;3.20;;;5.50;99.90;;;;;;5038780;28;20044;-73
2022/11/27 10:46:28;;;;;;;5.90;3.47;;;5.50;99.90;;;;;;5055836;28;20052;-72
2022/11/27 10:48:54;;;;;;;5.60;3.30;;;5.50;99.90;;;;;;5055758;28;20045;-73
2022/11/27 10:51:27;;;;;;;6.05;3.35;;;5.50;99.90;;;;;;5038885;28;20060;-73
2022/11/27 10:53:54;;;;;;;6.78;3.97;;;5.50;99.90;;;;;;5038660;28;20145;-73
2022/11/27 10:56:59;;;;;;;4.95;2.92;;;5.50;99.90;;;;;;5055606;28;20045;-74
2022/11/27 10:59:32;;;;;;;6.43;3.15;;;5.50;99.90;;;;;;5056061;28;20053;-74
2022/11/27 11:01:59;;;;;;;6.03;3.75;;;5.80;99.90;;;;;;5021318;28;20057;-72
2022/11/27 11:04:27;;;;;;;5.75;3.42;;;5.60;99.90;;;;;;5037930;28;20045;-72
2022/11/27 11:06:54;;;;;;;6.55;3.22;;;5.60;99.90;;;;;;5055929;28;20142;-74
2022/11/27 11:09:28;;;;;;;7.10;3.45;;;5.90;99.90;;;;;;5055377;28;20118;-74
2022/11/27 11:12:05;;;;;;;8.07;4.57;;;5.60;99.90;;;;;;5037400;28;20441;-73
2022/11/27 11:14:31;;;;;;;7.18;3.65;;;5.60;99.90;;;;;;5055289;28;20045;-75
2022/11/27 11:16:57;;;;;;;6.15;3.30;;;5.60;99.90;;;;;;5055230;28;20045;-74
2022/11/27 11:19:30;;;;;;;6.72;3.58;;;5.80;99.90;;;;;;5037555;28;20063;-75
2022/11/27 11:21:57;;;;;;;6.40;3.45;;;5.60;99.90;;;;;;5037488;28;20052;-74
2022/11/27 11:24:31;;;;;;;6.63;3.58;;;5.70;99.90;;;;;;5037209;28;20123;-75
2022/11/27 11:27:20;;;;;;;5.13;3.42;;;5.70;99.90;;;;;;5038146;28;20052;-74
2022/11/27 11:29:47;;;;;;;8.52;4.50;;;5.70;99.90;;;;;;5054087;28;20037;-74
2022/11/27 11:32:18;;;;;;;5.78;3.88;;;5.70;99.90;;;;;;5021001;28;20078;-74
2022/11/27 11:34:50;;;;;;;8.30;3.90;;;5.70;99.90;;;;;;5054988;28;20040;-75
2022/11/27 11:37:39;;;;;;;6.78;3.53;;;5.80;99.90;;;;;;5021113;28;20390;-74
2022/11/27 11:40:29;;;;;;;5.68;3.50;;;5.80;99.90;;;;;;5055842;28;20136;-74
2022/11/27 11:43:04;;;;;;;6.40;3.75;;;5.80;99.90;;;;;;5038020;28;20429;-73
2022/11/27 11:45:31;;;;;;;7.43;3.75;;;6.60;99.90;;;;;;5054693;28;20048;-71
2022/11/27 11:48:17;;;;;;;6.40;3.88;;;5.80;99.90;;;;;;5055612;28;20076;-73
2022/11/27 11:50:53;;;;;;;6.13;3.83;;;5.80;99.90;;;;;;5037256;28;20056;-73
2022/11/27 11:53:31;;;;;;;;;;;5.80;99.90;;;;;;5054965;28;20136;-73
2022/11/27 11:56:25;;;;;;;7.30;3.80;;;5.80;99.90;;;;;;5054601;28;19925;-74
2022/11/27 11:58:59;;;;;;;6.72;3.15;;;5.80;99.90;;;;;;5036701;28;20051;-73
2022/11/27 12:01:38;;;;;;;7.28;3.38;;;5.90;99.90;;;;;;5054774;28;20097;-73
2022/11/27 12:04:31;;;;;;;5.60;3.55;;;5.90;99.90;;;;;;5037461;28;20389;-73
2022/11/27 12:07:30;;;;;;;9.35;3.72;;;6.50;99.90;;;;;;5037129;28;20053;-71
2022/11/27 12:10:05;;;;;;;7.57;3.83;;;5.90;99.90;;;;;;5054468;28;20401;-72
2022/11/27 12:12:52;;;;;;;5.63;3.33;;;6.00;99.90;;;;;;5054905;28;20091;-71
2022/11/27 12:15:37;;;;;;;8.27;3.50;;;6.00;99.90;;;;;;5036894;28;20489;-74
2022/11/27 12:18:15;;;;;;;6.35;3.33;;;6.40;99.90;;;;;;5054798;28;20397;-72
2022/11/27 12:21:19;;;;;;;5.75;3.50;;;6.10;99.90;;;;;;5037219;28;20077;-72
2022/11/27 12:24:10;;;;;;;7.18;3.75;;;6.00;99.90;;;;;;4972857;28;20526;-73
2022/11/27 12:26:42;;;;;;;5.38;3.40;;;6.00;99.90;;;;;;5032118;28;20405;-72
2022/11/27 12:29:45;;;;;;;7.68;3.88;;;6.10;99.90;;;;;;5036646;28;20385;-73
2022/11/27 12:32:40;;;;;;;6.50;3.83;;;6.10;99.90;;;;;;5053899;28;20084;-75
2022/11/27 12:35:31;;;;;;;5.95;3.55;;;6.10;99.90;;;;;;5054190;28;20346;-72
2022/11/27 12:38:21;;;;;;;6.72;4.03;;;6.40;99.90;;;;;;5043912;28;20110;-73
2022/11/27 12:41:24;;;;;;;6.30;3.63;;;6.20;99.90;;;;;;5054258;28;20045;-73
2022/11/27 12:43:55;;;;;;;5.47;3.03;;;6.20;99.90;;;;;;5054203;28;20115;-73
2022/11/27 12:46:36;;;;;;;5.78;3.53;;;6.20;99.90;;;;;;5037032;28;20051;-74
2022/11/27 12:49:16;;;;;;;6.35;3.50;;;6.20;99.90;;;;;;5035879;28;20045;-74
2022/11/27 12:51:58;;;;;;;5.95;3.45;;;6.20;99.90;;;;;;5054201;28;20049;-72
2022/11/27 12:54:38;;;;;;;6.85;4.40;;;6.20;99.90;;;;;;5053235;28;20532;-73
2022/11/27 12:57:10;;;;;;;6.07;3.70;;;6.70;99.90;;;;;;5053903;28;20540;-74
2022/11/27 12:59:59;;;;;;;6.25;3.50;;;6.20;99.90;;;;;;5036653;28;20344;-74
2022/11/27 13:02:37;;;;;;;6.50;3.50;;;6.20;99.90;;;;;;5019926;28;20110;-73
2022/11/27 13:05:10;;;;;;;7.57;3.78;;;6.20;99.90;;;;;;5053349;28;20081;-73
2022/11/27 13:07:59;;;;;;;8.73;4.53;;;6.20;99.90;;;;;;5053728;28;20052;-74
2022/11/27 13:10:42;;;;;;;7.10;3.55;;;6.20;99.90;;;;;;5053404;28;20055;-74
2022/11/27 13:13:16;;;;;;;6.65;3.03;;;6.60;99.90;;;;;;5053178;28;20049;-75
2022/11/27 13:15:49;;;;;;;5.57;3.75;;;6.20;99.90;;;;;;5035448;28;20090;-74
2022/11/27 13:18:28;;;;;;;9.20;4.07;;;6.20;99.90;;;;;;5053264;28;20052;-72
2022/11/27 13:20:59;;;;;;;7.30;3.67;;;6.70;99.90;;;;;;5054119;28;20079;-73